createdAt,value
2018-09-22T00:02:21.910Z,12.70
2018-09-22T00:07:25.614Z,12.70
2018-09-22T00:12:28.973Z,12.70
2018-09-22T00:17:33.592Z,12.70
2018-09-22T00:22:37.115Z,12.70
2018-09-22T00:27:40.541Z,12.60
2018-09-22T00:32:44.344Z,12.60
2018-09-22T00:37:47.700Z,12.60
2018-09-22T00:42:51.253Z,12.50
2018-09-22T00:47:54.584Z,12.50
2018-09-22T00:52:58.008Z,12.50
2018-09-22T00:58:01.492Z,12.50
2018-09-22T01:03:04.955Z,12.40
2018-09-22T01:08:08.553Z,12.40
2018-09-22T01:13:12.243Z,12.40
2018-09-22T01:18:18.377Z,12.40
2018-09-22T01:23:21.734Z,12.40
2018-09-22T01:28:25.098Z,12.40
2018-09-22T01:33:28.414Z,12.40
2018-09-22T01:38:31.818Z,12.40
2018-09-22T01:43:35.227Z,12.30
2018-09-22T01:48:38.728Z,12.30
2018-09-22T01:53:42.143Z,12.20
2018-09-22T01:58:45.485Z,12.20
2018-09-22T02:03:48.972Z,12.10
2018-09-22T02:08:52.448Z,12.10
2018-09-22T02:13:55.935Z,12.00
2018-09-22T02:18:59.214Z,12.00
2018-09-22T02:24:02.598Z,12.00
2018-09-22T02:29:05.970Z,11.90
2018-09-22T02:34:09.260Z,11.80
2018-09-22T02:39:12.702Z,11.70
2018-09-22T02:44:15.993Z,11.70
2018-09-22T02:49:19.300Z,11.60
2018-09-22T02:54:22.610Z,11.60
2018-09-22T02:59:25.954Z,11.60
2018-09-22T03:04:29.322Z,11.60
2018-09-22T03:09:32.814Z,11.50
2018-09-22T03:14:36.207Z,11.30
2018-09-22T03:19:39.498Z,11.30
2018-09-22T03:24:42.956Z,11.30
2018-09-22T03:29:46.337Z,11.30
2018-09-22T03:34:49.640Z,11.30
2018-09-22T03:39:52.963Z,11.20
2018-09-22T03:44:56.385Z,11.10
2018-09-22T03:49:59.689Z,11.00
2018-09-22T03:55:03.143Z,10.90
2018-09-22T04:00:07.429Z,10.90
2018-09-22T04:05:10.724Z,10.90
2018-09-22T04:10:14.110Z,10.90
2018-09-22T04:15:17.416Z,10.90
2018-09-22T04:20:20.719Z,10.80
2018-09-22T04:25:23.996Z,10.80
2018-09-22T04:30:27.429Z,10.80
2018-09-22T04:35:30.716Z,10.70
2018-09-22T04:40:34.100Z,10.70
2018-09-22T04:45:37.410Z,10.70
2018-09-22T04:50:40.830Z,10.70
2018-09-22T04:55:44.236Z,10.60
2018-09-22T05:00:47.689Z,10.60
2018-09-22T05:05:50.992Z,10.60
2018-09-22T05:10:54.289Z,10.60
2018-09-22T05:15:57.721Z,10.60
2018-09-22T05:21:01.029Z,10.60
2018-09-22T05:26:04.491Z,10.50
2018-09-22T05:31:07.924Z,10.50
2018-09-22T05:36:11.342Z,10.50
2018-09-22T05:41:14.659Z,10.50
2018-09-22T05:46:18.259Z,10.50
2018-09-22T05:51:21.868Z,10.50
2018-09-22T05:56:25.690Z,10.50
2018-09-22T06:01:28.996Z,10.50
2018-09-22T06:06:33.242Z,10.50
2018-09-22T06:11:37.069Z,10.60
2018-09-22T06:16:40.353Z,10.60
2018-09-22T06:21:43.674Z,10.60
2018-09-22T06:26:47.569Z,10.70
2018-09-22T06:31:52.437Z,10.80
2018-09-22T06:36:55.805Z,10.90
2018-09-22T06:41:59.198Z,11.00
2018-09-22T06:47:02.721Z,11.10
2018-09-22T06:52:06.372Z,11.20
2018-09-22T06:57:09.750Z,11.20
2018-09-22T07:02:14.850Z,11.20
2018-09-22T07:07:18.179Z,11.30
2018-09-22T07:12:21.469Z,11.40
2018-09-22T07:17:24.832Z,11.40
2018-09-22T07:22:33.560Z,11.50
2018-09-22T07:27:36.978Z,11.60
2018-09-22T07:32:40.598Z,11.70
2018-09-22T07:37:43.920Z,11.80
2018-09-22T07:42:47.333Z,11.90
2018-09-22T07:47:50.625Z,12.00
2018-09-22T07:52:53.949Z,12.20
2018-09-22T07:57:57.503Z,12.20
2018-09-22T08:03:00.905Z,12.20
2018-09-22T08:08:04.249Z,12.40
2018-09-22T08:13:07.817Z,12.50
2018-09-22T08:18:11.149Z,12.50
2018-09-22T08:23:14.589Z,12.60
2018-09-22T08:28:18.193Z,12.60
2018-09-22T08:33:21.770Z,12.80
2018-09-22T08:38:25.070Z,12.80
2018-09-22T08:43:28.517Z,12.90
2018-09-22T08:48:31.838Z,12.90
2018-09-22T08:53:35.436Z,13.00
2018-09-22T08:58:38.780Z,13.10
2018-09-22T09:03:42.104Z,13.00
2018-09-22T09:08:45.498Z,13.20
2018-09-22T09:13:48.830Z,13.30
2018-09-22T09:18:52.269Z,13.20
2018-09-22T09:23:55.562Z,13.30
2018-09-22T09:28:58.854Z,13.30
2018-09-22T09:34:02.269Z,13.30
2018-09-22T09:39:05.913Z,13.50
2018-09-22T09:44:09.302Z,13.70
2018-09-22T09:49:12.621Z,13.70
2018-09-22T09:54:15.958Z,13.80
2018-09-22T09:59:19.323Z,13.80
2018-09-22T10:04:22.665Z,13.90
2018-09-22T10:09:25.955Z,14.00
2018-09-22T10:14:29.277Z,14.20
2018-09-22T10:19:32.690Z,14.20
2018-09-22T10:24:36.075Z,14.30
2018-09-22T10:29:39.554Z,14.20
2018-09-22T10:34:43.276Z,14.30
2018-09-22T10:39:46.706Z,14.50
2018-09-22T10:44:50.092Z,14.60
2018-09-22T10:49:53.384Z,14.70
2018-09-22T10:54:56.833Z,14.70
2018-09-22T11:00:00.221Z,14.60
2018-09-22T11:05:03.601Z,14.80
2018-09-22T11:10:07.008Z,14.70
2018-09-22T11:15:11.302Z,14.80
2018-09-22T11:20:14.705Z,14.70
2018-09-22T11:25:17.984Z,14.70
2018-09-22T11:30:21.289Z,14.80
2018-09-22T11:35:24.669Z,15.10
2018-09-22T11:45:31.173Z,15.00
2018-09-22T11:50:34.748Z,14.90
2018-09-22T11:55:38.235Z,14.90
2018-09-22T12:00:42.672Z,14.90
2018-09-22T12:05:46.150Z,15.10
2018-09-22T12:10:49.601Z,15.10
2018-09-22T12:15:52.937Z,15.20
2018-09-22T12:20:56.254Z,15.30
2018-09-22T12:25:59.856Z,15.60
2018-09-22T12:31:03.201Z,15.90
2018-09-22T12:36:06.741Z,16.00
2018-09-22T12:41:10.263Z,16.10
2018-09-22T12:46:13.861Z,16.10
2018-09-22T12:51:17.245Z,16.10
2018-09-22T12:56:20.576Z,15.70
2018-09-22T13:01:23.998Z,15.80
2018-09-22T13:06:27.524Z,16.00
2018-09-22T13:11:31.030Z,16.00
2018-09-22T13:16:34.374Z,16.20
2018-09-22T13:21:37.710Z,16.00
2018-09-22T13:31:45.410Z,15.90
2018-09-22T13:36:48.900Z,16.20
2018-09-22T13:41:52.490Z,16.20
2018-09-22T13:46:55.797Z,16.30
2018-09-22T13:51:59.317Z,16.40
2018-09-22T13:57:02.613Z,16.50
2018-09-22T14:02:05.972Z,16.60
2018-09-22T14:07:09.457Z,16.70
2018-09-22T14:12:13.008Z,16.50
2018-09-22T14:17:16.744Z,16.50
2018-09-22T14:27:23.681Z,16.40
2018-09-22T14:32:27.165Z,16.30
2018-09-22T14:37:30.749Z,16.40
2018-09-22T14:42:34.345Z,16.20
2018-09-22T14:47:37.839Z,16.10
2018-09-22T14:52:41.231Z,16.00
2018-09-22T14:57:44.768Z,16.00
2018-09-22T15:02:49.134Z,15.90
2018-09-22T15:07:52.564Z,15.90
2018-09-22T15:12:56.322Z,15.90
2018-09-22T15:17:59.757Z,15.90
2018-09-22T15:23:03.169Z,15.90
2018-09-22T15:28:06.507Z,15.90
2018-09-22T15:33:11.933Z,15.90
2018-09-22T15:43:18.369Z,15.90
2018-09-22T15:48:21.800Z,16.10
2018-09-22T15:53:25.130Z,16.30
2018-09-22T15:58:29.030Z,16.40
2018-09-22T16:03:32.349Z,16.30
2018-09-22T16:08:35.726Z,16.20
2018-09-22T16:13:39.162Z,16.10
2018-09-22T16:18:42.458Z,16.10
2018-09-22T16:23:45.794Z,16.00
2018-09-22T16:28:49.202Z,16.00
2018-09-22T16:33:52.533Z,16.00
2018-09-22T16:38:55.869Z,15.90
2018-09-22T16:43:59.261Z,15.90
2018-09-22T16:49:02.713Z,15.90
2018-09-22T16:54:06.013Z,15.80
2018-09-22T16:59:09.736Z,15.80
2018-09-22T17:04:13.094Z,15.80
2018-09-22T17:09:16.407Z,15.70
2018-09-22T17:14:19.972Z,15.60
2018-09-22T17:19:23.455Z,15.60
2018-09-22T17:24:26.886Z,15.60
2018-09-22T17:29:30.305Z,15.60
2018-09-22T17:34:33.644Z,15.50
2018-09-22T17:39:37.151Z,15.50
2018-09-22T17:44:40.449Z,15.40
2018-09-22T17:49:43.753Z,15.30
2018-09-22T17:54:47.136Z,15.20
2018-09-22T17:59:50.441Z,15.10
2018-09-22T18:04:53.780Z,15.10
2018-09-22T18:09:57.104Z,15.10
2018-09-22T18:15:00.533Z,15.00
2018-09-22T18:20:04.405Z,15.00
2018-09-22T18:25:07.757Z,14.90
2018-09-22T18:30:11.141Z,14.80
2018-09-22T18:35:14.557Z,14.60
2018-09-22T18:40:17.981Z,14.50
2018-09-22T18:45:21.325Z,14.40
2018-09-22T18:50:24.651Z,14.40
2018-09-22T18:55:28.182Z,14.30
2018-09-22T19:00:31.565Z,14.10
2018-09-22T19:05:35.085Z,14.00
2018-09-22T19:10:38.395Z,14.00
2018-09-22T19:15:46.867Z,14.00
2018-09-22T19:20:54.021Z,13.90
2018-09-22T19:26:01.115Z,13.90
2018-09-22T19:31:08.351Z,13.90
2018-09-22T19:36:17.377Z,14.00
2018-09-22T19:41:24.306Z,14.00
2018-09-22T19:46:31.584Z,14.00
2018-09-22T19:51:38.240Z,13.90
2018-09-22T19:56:41.602Z,13.80
2018-09-22T20:01:44.985Z,13.70
2018-09-22T20:06:48.426Z,13.70
2018-09-22T20:11:51.725Z,13.70
2018-09-22T20:16:55.049Z,13.60
2018-09-22T20:21:58.354Z,13.50
2018-09-22T20:27:01.836Z,13.60
2018-09-22T20:32:05.168Z,13.50
2018-09-22T20:37:08.543Z,13.40
2018-09-22T20:42:11.906Z,13.40
2018-09-22T20:47:15.330Z,13.50
2018-09-22T20:52:18.675Z,13.50
2018-09-22T20:57:22.142Z,13.50
2018-09-22T21:02:25.677Z,13.50
2018-09-22T21:07:29.562Z,13.50
2018-09-22T21:12:33.041Z,13.50
2018-09-22T21:17:36.429Z,13.40
2018-09-22T21:22:40.148Z,13.50
2018-09-22T21:27:44.158Z,13.40
2018-09-22T21:32:47.723Z,13.40
2018-09-22T21:37:51.813Z,13.40
2018-09-22T21:42:55.701Z,13.30
2018-09-22T21:47:59.221Z,13.30
2018-09-22T21:53:03.753Z,13.30
2018-09-22T21:58:08.096Z,13.30
2018-09-22T22:03:12.062Z,13.30
2018-09-22T22:08:16.565Z,13.30
2018-09-22T22:13:20.645Z,12.90
2018-09-22T22:18:24.653Z,13.00
2018-09-22T22:23:28.449Z,13.00
2018-09-22T22:33:35.277Z,13.10
2018-09-22T22:38:38.885Z,13.00
2018-09-22T22:43:43.094Z,13.00
2018-09-22T22:48:47.304Z,12.90
2018-09-22T22:53:51.338Z,12.80
2018-09-22T22:58:54.887Z,12.90
2018-09-22T23:03:58.339Z,12.90
2018-09-22T23:09:02.580Z,12.90
2018-09-22T23:14:06.339Z,12.80
2018-09-22T23:19:10.425Z,12.70
2018-09-22T23:24:14.046Z,12.70
2018-09-22T23:29:17.465Z,12.70
2018-09-22T23:34:20.936Z,12.60
2018-09-22T23:39:24.383Z,12.70
2018-09-22T23:44:27.805Z,12.70
2018-09-22T23:49:31.241Z,12.60
2018-09-22T23:54:35.637Z,12.70
2018-09-22T23:59:39.103Z,12.60
